Newcastle, TX (76372)

1:20 PM CDT on May 05, 2015 (GMT -0500)
DDR Longhorns Graham, Texas | | Change Station
CLOSE
Current Station
Personal Weather Station
Location: Graham, TX
Elevation: 1178 ft
Nearby Weather Stations

Elev 1178 ft 33.18 °N, 98.67 °W | Updated 5 seconds ago

Overcast
Overcast
70.0 °F
Feels Like 70.0 °F
N
4.0
Wind Variable Wind from South
Gusts 13.0 mph

Today
High -- | Low -- °F
--% Chance of Precip.
Yesterday
High -- | Low -- °F
Precip. -- in
6:43 AM 8:20 PM
Full, 97% visible
Pressure 29.93 in
Visibility -9999.0 miles
Clouds Scattered Clouds 2300 ft
Mostly Cloudy 3100 ft
Mostly Cloudy 3900 ft
Dew Point 62 °F
Humidity 76%
Rainfall 0.04 in
Snow Depth Not available.
UV 6 out of 12
Pollen 7.20 out of 12
Air Quality Not available.
Flu Activity Sporadic
METAR KRPH 051755Z AUTO 14014G19KT SCT023 BKN031 BKN039 23/18 A2993 RMK AO2 T02320180 10237 20175 PWINO

More Conditions Fewer Conditions

Pressure 29.93 in
Visibility -9999.0 miles
Clouds Scattered Clouds 2300 ft
Mostly Cloudy 3100 ft
Mostly Cloudy 3900 ft
Dew Point 62 °F
Humidity 76%
Rainfall 0.04 in
Snow Depth Not available.
UV 6 out of 12
Pollen 7.20 out of 12
Air Quality Not available.
Flu Activity Sporadic
METAR KRPH 051755Z AUTO 14014G19KT SCT023 BKN031 BKN039 23/18 A2993 RMK AO2 T02320180 10237 20175 PWINO

More Conditions Fewer Conditions

Nowcast | as of 12:49 PM CDT on May 5, 2015

Scattered showers and isolated thunderstorms will occur for much of the afternoon. Areas most likely to see rainfall will be generally west of US 281...west of a line from Bowie...to Lampasas. Another area of scattered showers will occur along and north of Interstate 45...from Centerville to near Denison. Movement of the scattered showers is north-northeast...at less than 20 mph.

×

10-Day Weather Forecast

Almanac

Astronomy

May. 05, 2015 Rise Set
Actual Time
Civil Twilight
Nautical Twilight
Astronomical Twilight
Moon
Length of Visible Light
Length of Day
Tomorrow will be .
, % of the Moon is Illuminated

Today's Extremes

State Highs State Lows

Community

WunderPhotos

Upload Photos

1,818,951 photos uploaded!

WunderBlogs® & News

Nearby

Air Quality

  Air Quality AQ Index Pollutant
Not available.

Snow Depth

Station Depth Elevation

Earthquake Activity

City Distance Mag. Time & Date
Minimum magnitude displayed is 2.5.

Coastal Water Temperatures

Place Temperature

Stations

Nearby Weather Stations

Station Location Temp. Windchill Dew Point Humidity Wind Precip. Elev Updated Type